.
Local / Fort Wayne - NE Ind.

U N D E R   C O N S T R U C T I O N

Local Weather
Fort Wayne – NE Indiana

Northern Indiana (IWX) Radar

Latest IWX NEXRAD
Base Reflectivity



Latest IWX NEXRAD
Base Velocity

Indiana-Ohio Visible Satellite

For infrared and water vapor imagery, see Great Lakes - Midwest.

Current Conditions

Recent report from the Fort Wayne International Airport

Nov 18, 2019 - 05:54 AM EST / 2019.11.18 1054 UTC


The skies are mostly clear and there is mist. The temperature is 25.0 F (-3.9 C) and the dew point is 23.0 F (-5.0 C), giving a relative humidity of 92%. The barometric pressure is 29.78 in. Hg (1008 hPa). The wind is Calm, and the visibility is 5 mile(s).

KFWA 181054Z 00000KT 5SM BR FEW100 M04/M05 A2978 RMK AO2 SLP093 I1000 T10391050

Local Weather — Contents

Local Weather — Links

CoCoRaHS
IN-AL-39
A2 Web Hosting
Creative Commons License
GoDaddy
search engine by freefind advanced

loaded 2019-11-18 06:09:45 • last modified 2017-02-11 13:27:36
Privacy PolicyDisclaimer
• wx.awcolley.com is powered by PmWiki v.2002016 •
• all content (unless otherwise noted) © 2019 A W Colley